Time;durP1;ratioP1;P1;durP2;ratioP2;P2;SDS_P1;SDS_P2;PMS_P1;PMS_P2;Temp;Humidity;BMP_temperature;BMP_pressure;BME280_temperature;BME280_humidity;BME280_pressure;Samples;Min_cycle;Max_cycle;Signal;HPM_P1;HPM_P2
2021/03/01 00:00:27;;;;;;;3.12;1.82;;;;;;;3.06;76.37;99900.65;361560;110;1962923;-72
2021/03/01 00:01:32;;;;;;;3.13;1.53;;;;;;;3.05;76.42;99903.48;356290;112;1961952;-69
2021/03/01 00:02:38;;;;;;;2.97;1.42;;;;;;;3.05;76.48;99898.98;354755;111;1963976;-70
2021/03/01 00:03:44;;;;;;;2.77;1.61;;;;;;;3.05;76.66;99898.15;356406;111;1961993;-71
2021/03/01 00:04:54;;;;;;;2.54;1.43;;;;;;;3.04;76.41;99904.46;345758;113;2938972;31
2021/03/01 00:06:00;;;;;;;3.12;1.38;;;;;;;3.06;76.19;99899.81;354673;112;1961893;-72
2021/03/01 00:07:05;;;;;;;2.53;1.45;;;;;;;3.06;76.35;99905.16;337748;111;2327928;-70
2021/03/01 00:08:10;;;;;;;2.09;1.10;;;;;;;3.08;76.25;99904.02;341944;110;1961964;-70
2021/03/01 00:09:16;;;;;;;8.33;1.55;;;;;;;3.07;76.76;99910.35;365894;108;1961977;-70
2021/03/01 00:10:24;;;;;;;2.82;1.43;;;;;;;3.08;76.91;99906.68;367128;108;1961955;-71
2021/03/01 00:11:30;;;;;;;2.23;1.15;;;;;;;3.07;76.81;99907.69;327302;109;2677928;-70
2021/03/01 00:12:36;;;;;;;3.21;1.53;;;;;;;3.11;77.06;99915.38;343772;109;1961822;-70
2021/03/01 00:13:41;;;;;;;3.04;1.48;;;;;;;3.11;77.13;99907.38;365535;109;1963929;-70
2021/03/01 00:14:46;;;;;;;3.38;1.56;;;;;;;3.11;76.89;99908.20;366379;109;1961940;-72
2021/03/01 00:15:53;;;;;;;3.40;1.28;;;;;;;3.15;77.02;99911.41;364575;111;1962987;-72
2021/03/01 00:16:59;;;;;;;2.22;1.41;;;;;;;3.16;76.98;99908.59;365557;110;1962058;-72
2021/03/01 00:18:05;;;;;;;2.97;1.40;;;;;;;3.17;77.16;99906.76;354019;109;1963039;-71
2021/03/01 00:19:11;;;;;;;3.09;1.28;;;;;;;3.15;75.99;99908.73;366727;109;1963924;-71
2021/03/01 00:20:18;;;;;;;2.19;1.47;;;;;;;3.20;76.75;99903.78;365997;109;1963049;-72
2021/03/01 00:21:33;;;;;;;2.42;1.52;;;;;;;3.21;76.82;99908.98;332939;109;2538068;-71
2021/03/01 00:22:43;;;;;;;3.21;1.47;;;;;;;3.22;76.46;99904.47;342763;110;2389902;-71
2021/03/01 00:23:49;;;;;;;2.65;1.27;;;;;;;3.24;76.57;99902.50;350844;105;2412947;-71
2021/03/01 00:24:54;;;;;;;2.40;1.56;;;;;;;3.26;76.22;99908.53;363463;105;1961875;-71
2021/03/01 00:26:00;;;;;;;2.07;1.29;;;;;;;3.26;76.40;99912.03;379437;105;1961999;-71
2021/03/01 00:27:05;;;;;;;3.19;1.48;;;;;;;3.28;76.76;99911.86;377310;105;1962007;-71
2021/03/01 00:28:11;;;;;;;3.63;1.62;;;;;;;3.30;76.68;99912.55;378067;105;1961979;-71
2021/03/01 00:29:16;;;;;;;2.39;1.16;;;;;;;3.34;76.64;99913.11;378248;106;1962025;-71
2021/03/01 00:30:24;;;;;;;3.17;1.46;;;;;;;3.32;75.54;99910.58;375706;106;1961935;-71
2021/03/01 00:31:30;;;;;;;2.32;1.37;;;;;;;3.33;76.21;99909.57;377616;107;1961925;-71
2021/03/01 00:32:38;;;;;;;3.17;1.74;;;;;;;3.37;75.80;99910.13;376670;105;1962888;-71
2021/03/01 00:33:43;;;;;;;2.91;1.68;;;;;;;3.37;76.22;99910.13;348633;105;1963044;-71
2021/03/01 00:34:49;;;;;;;2.36;1.49;;;;;;;3.39;75.95;99916.16;377191;106;1961963;-71
2021/03/01 00:35:54;;;;;;;2.88;1.49;;;;;;;3.39;76.12;99922.33;379027;105;1963918;-71
2021/03/01 00:37:00;;;;;;;2.76;1.38;;;;;;;3.37;75.71;99923.48;377179;107;1961004;-71
2021/03/01 00:38:05;;;;;;;3.28;1.59;;;;;;;3.38;75.80;99923.30;380000;105;1961979;-69
2021/03/01 00:39:11;;;;;;;2.30;1.32;;;;;;;3.37;76.21;99926.98;377937;106;1961923;-71
2021/03/01 00:40:18;;;;;;;2.34;1.21;;;;;;;3.35;76.09;99923.62;336701;105;2235919;-71
2021/03/01 00:41:23;;;;;;;3.19;1.53;;;;;;;3.37;76.12;99923.48;367925;105;1962006;-71
2021/03/01 00:42:28;;;;;;;3.44;1.92;;;;;;;3.37;75.74;99928.81;377657;105;1961954;-71
2021/03/01 00:43:34;;;;;;;2.47;1.45;;;;;;;3.38;75.66;99925.14;380382;105;1961898;-72
2021/03/01 00:44:40;;;;;;;2.29;1.43;;;;;;;3.39;75.52;99925.00;377807;107;1961967;-72
2021/03/01 00:45:46;;;;;;;3.08;1.74;;;;;;;3.36;75.08;99921.78;377477;107;1963923;-71
2021/03/01 00:46:52;;;;;;;3.43;1.43;;;;;;;3.29;74.65;99927.74;347665;105;2462898;-71
2021/03/01 00:47:57;;;;;;;2.79;1.51;;;;;;;3.25;75.08;99921.02;353699;108;1961956;-72
2021/03/01 00:49:14;;;;;;;3.43;1.44;;;;;;;3.28;75.87;99925.21;356251;107;1960920;-72
2021/03/01 00:50:22;;;;;;;1.87;1.37;;;;;;;3.28;76.00;99919.87;296192;110;2235140;-70
2021/03/01 00:51:27;;;;;;;3.37;1.41;;;;;;;3.24;75.68;99924.69;351601;112;1961982;-71
2021/03/01 00:52:33;;;;;;;1.88;1.30;;;;;;;3.27;76.22;99927.05;359270;112;1961943;-71
2021/03/01 00:53:38;;;;;;;3.37;1.28;;;;;;;3.32;76.28;99929.27;361614;112;1961017;-70
2021/03/01 00:54:44;;;;;;;2.62;1.39;;;;;;;3.33;76.05;99932.77;347635;116;1961956;-71
2021/03/01 00:55:50;;;;;;;2.42;1.24;;;;;;;3.33;75.76;99943.45;359354;113;1961909;-71
2021/03/01 00:56:57;;;;;;;3.73;1.26;;;;;;;3.33;75.96;99944.28;342635;106;1960909;-71
2021/03/01 00:58:02;;;;;;;1.64;1.23;;;;;;;3.34;76.22;99948.65;352506;113;1961953;-72
2021/03/01 00:59:07;;;;;;;4.33;1.77;;;;;;;3.39;76.24;99958.88;354632;112;1961982;-71
2021/03/01 01:00:17;;;;;;;2.86;1.27;;;;;;;3.40;76.07;99963.22;356308;112;1962237;-72
2021/03/01 01:01:24;;;;;;;1.95;1.18;;;;;;;3.40;74.93;99960.55;355241;114;1961988;-71
2021/03/01 01:02:31;;;;;;;2.62;1.93;;;;;;;3.40;75.50;99973.91;349967;114;1965018;-70
2021/03/01 01:03:51;;;;;;;2.54;1.43;;;;;;;3.35;74.31;99968.17;318308;115;2461991;-71
2021/03/01 01:04:58;;;;;;;2.01;1.29;;;;;;;3.33;74.87;99979.00;353738;112;1962021;-71
2021/03/01 01:06:12;;;;;;;2.32;1.43;;;;;;;3.35;75.35;99981.53;354582;112;1962984;-71
2021/03/01 01:07:17;;;;;;;1.92;1.12;;;;;;;3.35;75.00;99976.19;358475;113;1962925;-72
2021/03/01 01:08:24;;;;;;;3.02;1.21;;;;;;;3.34;74.48;99977.19;351883;113;1965056;-71
2021/03/01 01:09:29;;;;;;;2.08;1.26;;;;;;;3.30;74.77;99984.64;353304;113;1962015;-71
2021/03/01 01:10:37;;;;;;;1.73;1.19;;;;;;;3.29;75.15;99982.97;347090;113;1961987;-70
2021/03/01 01:11:44;;;;;;;2.34;1.38;;;;;;;3.26;75.18;99994.80;349684;113;1961929;-71
2021/03/01 01:12:49;;;;;;;2.05;1.36;;;;;;;3.27;75.57;100001.80;353619;113;1961966;-72
2021/03/01 01:14:05;;;;;;;2.53;1.38;;;;;;;3.24;75.18;100001.27;318045;113;2580949;-72
2021/03/01 01:15:11;;;;;;;3.33;1.79;;;;;;;3.22;74.97;100004.08;336260;110;1961889;-72
2021/03/01 01:16:17;;;;;;;1.99;1.19;;;;;;;3.24;74.81;100003.94;357227;111;1961971;-72
2021/03/01 01:17:24;;;;;;;4.48;1.94;;;;;;;3.20;74.91;100003.41;358900;111;1961914;-71
2021/03/01 01:18:30;;;;;;;3.89;2.33;;;;;;;3.24;75.41;100004.78;327755;111;2553969;-71
2021/03/01 01:19:35;;;;;;;2.47;1.32;;;;;;;3.23;75.49;100007.61;363967;109;1963620;-72
2021/03/01 01:20:42;;;;;;;2.98;1.47;;;;;;;3.24;75.78;100015.45;364216;111;1961939;-72
2021/03/01 01:21:47;;;;;;;2.55;1.36;;;;;;;3.26;75.64;100013.48;363897;111;1963039;-71
2021/03/01 01:22:53;;;;;;;4.47;1.73;;;;;;;3.27;75.67;100014.31;353984;113;1963934;-71
2021/03/01 01:23:59;;;;;;;2.83;1.56;;;;;;;3.30;75.95;100024.69;321453;111;2734968;-71
2021/03/01 01:25:07;;;;;;;1.91;1.27;;;;;;;3.32;75.96;100024.55;346390;109;1963982;-71
2021/03/01 01:26:23;;;;;;;2.05;1.22;;;;;;;3.33;76.13;100023.55;366838;108;1961896;-71
2021/03/01 01:27:29;;;;;;;2.58;1.37;;;;;;;3.34;75.80;100031.42;314610;113;2691951;-71
2021/03/01 01:28:34;;;;;;;2.49;1.38;;;;;;;3.36;75.00;100036.59;334366;114;1961823;-71
2021/03/01 01:29:40;;;;;;;2.73;1.15;;;;;;;3.37;75.00;100030.28;351142;114;1961984;-72
2021/03/01 01:30:46;;;;;;;3.18;2.13;;;;;;;3.35;74.70;100037.59;348129;114;1961936;-71
2021/03/01 01:31:51;;;;;;;2.79;1.53;;;;;;;3.34;75.03;100043.94;349808;116;1961928;-71
2021/03/01 01:32:57;;;;;;;2.37;1.26;;;;;;;3.34;75.14;100041.27;349696;114;1961955;-71
2021/03/01 01:34:03;;;;;;;2.32;1.26;;;;;;;3.33;75.24;100047.58;301900;116;2752046;-71
2021/03/01 01:35:11;;;;;;;3.22;1.77;;;;;;;3.34;74.13;100044.77;311906;117;1961968;-71
2021/03/01 01:36:18;;;;;;;3.01;1.73;;;;;;;3.35;74.76;100040.27;299181;113;2234910;-70
2021/03/01 01:37:25;;;;;;;3.19;1.61;;;;;;;3.28;75.01;100035.54;343011;118;1961952;-70
2021/03/01 01:38:32;;;;;;;3.48;1.54;;;;;;;3.30;74.99;100049.55;350056;114;1962999;-70
2021/03/01 01:39:38;;;;;;;3.18;1.73;;;;;;;3.29;75.39;100044.38;346970;116;1961987;-70
2021/03/01 01:40:58;;;;;;;2.87;1.61;;;;;;;3.29;74.92;100047.05;347736;116;1962017;-71
2021/03/01 01:42:03;;;;;;;3.99;2.23;;;;;;;3.33;75.30;100048.41;319230;109;2096168;-72
2021/03/01 01:43:08;;;;;;;2.41;1.40;;;;;;;3.32;75.63;100052.09;353708;107;1961943;-71
2021/03/01 01:44:13;;;;;;;2.81;1.45;;;;;;;3.33;75.70;100050.25;359255;111;1962874;-71
2021/03/01 01:45:22;;;;;;;4.19;1.97;;;;;;;3.36;75.26;100049.95;361335;109;1962067;-70
2021/03/01 01:46:28;;;;;;;3.07;1.80;;;;;;;3.37;75.62;100055.16;337132;111;1961824;-70
2021/03/01 01:47:33;;;;;;;2.85;1.81;;;;;;;3.40;75.38;100056.69;363666;108;1961959;-71
2021/03/01 01:48:39;;;;;;;3.71;1.64;;;;;;;3.42;74.97;100055.55;360748;111;1961997;-70
2021/03/01 01:49:44;;;;;;;2.81;1.74;;;;;;;3.42;75.16;100057.37;360301;111;1961935;-69
2021/03/01 01:50:50;;;;;;;2.81;1.74;;;;;;;3.42;75.15;100058.22;359900;112;1962923;-71
2021/03/01 01:51:56;;;;;;;2.86;1.55;;;;;;;3.42;75.17;100054.70;361714;112;1960680;-71
2021/03/01 01:53:02;;;;;;;2.45;1.39;;;;;;;3.43;75.28;100056.38;316466;110;2821981;-71
2021/03/01 01:54:10;;;;;;;2.97;1.66;;;;;;;3.42;74.87;100062.72;366371;108;1963992;-71
2021/03/01 01:55:17;;;;;;;3.14;1.64;;;;;;;3.41;75.33;100061.02;360697;111;1962882;-71
2021/03/01 01:56:24;;;;;;;2.59;1.66;;;;;;;3.43;75.19;100051.87;361309;111;1962923;-72
2021/03/01 01:57:30;;;;;;;3.16;2.14;;;;;;;3.45;75.26;100051.73;361112;111;1961946;-70
2021/03/01 01:58:36;;;;;;;1.96;1.30;;;;;;;3.45;75.07;100055.23;359828;112;1962978;-71
2021/03/01 01:59:41;;;;;;;2.71;1.60;;;;;;;3.44;74.68;100053.57;293078;107;2232502;-71
2021/03/01 02:00:48;;;;;;;4.21;1.48;;;;;;;3.48;74.48;100059.44;356311;112;1962966;-70
2021/03/01 02:01:57;;;;;;;5.20;1.80;;;;;;;3.46;74.77;100048.06;354100;111;1964978;-69
2021/03/01 02:03:15;;;;;;;3.02;1.69;;;;;;;3.43;74.91;100046.53;351871;114;1961967;-70
2021/03/01 02:04:27;;;;;;;2.32;1.28;;;;;;;3.42;74.93;100052.04;311561;111;2824075;-71
2021/03/01 02:05:34;;;;;;;1.73;1.09;;;;;;;3.41;75.07;100045.83;355736;114;1961981;-71
2021/03/01 02:07:02;;;;;;;3.21;1.70;;;;;;;3.38;74.79;100046.14;347761;105;1960874;-71
2021/03/01 02:08:25;;;;;;;2.64;1.38;;;;;;;3.39;75.06;100055.84;355699;111;1961996;-72
2021/03/01 02:09:37;;;;;;;2.53;1.46;;;;;;;3.40;74.93;100054.02;332629;111;1962053;-71
2021/03/01 02:10:57;;;;;;;2.04;1.23;;;;;;;3.40;74.68;100051.34;366617;109;1962000;-71
2021/03/01 02:12:06;;;;;;;2.79;1.33;;;;;;;3.39;74.30;100047.84;363536;109;1961917;-70
2021/03/01 02:13:33;;;;;;;1.85;1.19;;;;;;;3.40;74.76;100051.34;353896;110;1962030;-70
2021/03/01 02:14:52;;;;;;;2.20;1.11;;;;;;;3.38;74.82;100062.16;363078;111;1961965;-71
2021/03/01 02:16:03;;;;;;;2.22;1.21;;;;;;;3.34;73.90;100057.30;366993;109;1962989;-70
2021/03/01 02:17:09;;;;;;;3.28;1.31;;;;;;;3.37;74.82;100054.31;361668;111;1961876;-70
2021/03/01 02:18:15;;;;;;;2.66;1.54;;;;;;;3.37;74.43;100054.31;328005;109;2537988;-70
2021/03/01 02:19:22;;;;;;;2.17;1.51;;;;;;;3.36;74.41;100060.63;328518;110;1961940;-71
2021/03/01 02:20:27;;;;;;;1.46;1.04;;;;;;;3.33;73.91;100060.94;362872;110;1961951;-71
2021/03/01 02:21:37;;;;;;;1.97;0.96;;;;;;;3.30;73.98;100065.58;360071;112;1961985;-71
2021/03/01 02:22:42;;;;;;;1.98;1.11;;;;;;;3.27;74.36;100054.36;362603;112;1961920;-70
2021/03/01 02:23:48;;;;;;;1.70;1.11;;;;;;;3.26;74.57;100064.21;362288;109;1961995;-70
2021/03/01 02:25:07;;;;;;;2.17;1.12;;;;;;;3.22;74.11;100060.14;323607;105;2831002;-71
2021/03/01 02:26:18;;;;;;;2.54;1.32;;;;;;;3.20;74.69;100059.48;352857;106;2924942;-71
2021/03/01 02:27:34;;;;;;;4.18;1.01;;;;;;;3.20;75.45;100059.48;374425;107;1965006;-71
2021/03/01 02:28:43;;;;;;;2.13;1.15;;;;;;;3.23;75.04;100064.52;368534;107;1961894;-70
2021/03/01 02:29:57;;;;;;;3.03;1.44;;;;;;;3.20;74.64;100064.81;364931;108;1962957;-71
2021/03/01 02:31:05;;;;;;;2.59;1.24;;;;;;;3.20;74.57;100070.16;365407;110;1961938;-69
2021/03/01 02:32:12;;;;;;;2.61;1.24;;;;;;;3.17;73.84;100080.27;374088;108;1961914;-70
2021/03/01 02:33:22;;;;;;;2.24;1.28;;;;;;;3.15;74.00;100083.10;364061;106;2960930;-71
2021/03/01 02:34:31;;;;;;;3.58;1.67;;;;;;;3.16;74.52;100087.44;373959;106;1961962;-71
2021/03/01 02:35:44;;;;;;;2.86;1.53;;;;;;;3.13;74.47;100093.08;373268;106;1962953;-71
2021/03/01 02:36:54;;;;;;;4.04;2.54;;;;;;;3.08;74.63;100090.01;374491;107;1961896;-71
2021/03/01 02:38:02;;;;;;;1.84;1.27;;;;;;;3.09;74.67;100097.02;371361;106;1962857;-71
2021/03/01 02:39:09;;;;;;;3.16;1.52;;;;;;;3.08;74.42;100100.69;364138;107;2927917;-71
2021/03/01 02:40:17;;;;;;;2.93;1.50;;;;;;;3.05;74.57;100099.16;374164;106;1961972;-71
2021/03/01 02:41:25;;;;;;;2.67;1.36;;;;;;;3.03;73.95;100102.95;345672;106;2389967;-70
2021/03/01 02:42:32;;;;;;;4.22;1.68;;;;;;;3.03;74.15;100108.29;371012;107;1965336;-70
2021/03/01 02:43:40;;;;;;;2.32;1.40;;;;;;;2.91;74.23;100109.45;353961;106;2252955;-71
2021/03/01 02:44:46;;;;;;;3.23;1.53;;;;;;;2.86;74.28;100110.74;375409;106;1961900;-71
2021/03/01 02:45:53;;;;;;;4.12;1.56;;;;;;;2.86;75.11;100113.41;372478;107;1963091;-72
2021/03/01 02:46:59;;;;;;;2.25;1.48;;;;;;;2.86;75.24;100118.75;360284;107;1961918;-70
2021/03/01 02:48:05;;;;;;;3.27;1.83;;;;;;;2.88;75.37;100117.75;368306;108;1963972;-71
2021/03/01 02:49:12;;;;;;;3.97;2.00;;;;;;;2.89;75.39;100116.78;372610;108;1962041;-72
2021/03/01 02:50:20;;;;;;;2.41;1.47;;;;;;;2.88;75.43;100109.74;367569;106;1961948;-72
2021/03/01 02:51:27;;;;;;;3.47;1.67;;;;;;;2.90;75.64;100116.62;374920;106;1961938;-70
2021/03/01 02:52:34;;;;;;;3.52;1.74;;;;;;;2.94;75.97;100111.81;354407;108;1961947;-70
2021/03/01 02:53:42;;;;;;;2.43;1.61;;;;;;;2.92;75.28;100114.66;372307;106;1962941;-70
2021/03/01 02:54:49;;;;;;;2.38;1.58;;;;;;;2.93;75.24;100124.33;355858;107;1962026;-71
2021/03/01 02:55:58;;;;;;;3.83;1.94;;;;;;;2.95;75.32;100121.53;373769;108;1961963;-71
2021/03/01 02:57:04;;;;;;;3.49;1.70;;;;;;;2.95;74.71;100126.86;374491;106;1961972;-71
2021/03/01 02:58:11;;;;;;;3.17;1.72;;;;;;;2.96;74.96;100134.70;371734;107;1963930;-71
2021/03/01 02:59:19;;;;;;;3.32;1.48;;;;;;;2.94;74.58;100135.84;344969;106;2232002;-70
2021/03/01 03:00:27;;;;;;;2.96;1.62;;;;;;;2.86;74.23;100136.59;354748;106;2252890;-70
2021/03/01 03:01:34;;;;;;;3.33;1.78;;;;;;;2.85;74.92;100134.89;360975;106;1962005;-70
2021/03/01 03:02:42;;;;;;;3.46;2.08;;;;;;;2.82;75.13;100133.34;377715;107;1961994;-71
2021/03/01 03:03:51;;;;;;;3.16;1.98;;;;;;;2.82;75.03;100133.34;372421;105;1961993;-69
2021/03/01 03:04:58;;;;;;;3.24;1.86;;;;;;;2.84;75.71;100141.22;325946;107;2027913;-71
2021/03/01 03:06:04;;;;;;;2.42;1.49;;;;;;;2.85;75.80;100135.72;373128;106;1961929;-70
2021/03/01 03:07:10;;;;;;;3.07;1.86;;;;;;;2.82;74.44;100138.68;371267;105;1963970;-71
2021/03/01 03:08:17;;;;;;;2.63;1.48;;;;;;;2.84;74.36;100142.05;342117;105;2514934;-70
2021/03/01 03:09:25;;;;;;;2.88;1.81;;;;;;;2.82;74.72;100145.85;375041;106;1962935;-70
2021/03/01 03:10:33;;;;;;;3.32;1.46;;;;;;;2.83;75.18;100151.06;369038;108;1961955;-71
2021/03/01 03:11:43;;;;;;;3.36;1.86;;;;;;;2.85;75.52;100149.06;377283;105;1961969;-70
2021/03/01 03:12:50;;;;;;;3.31;1.82;;;;;;;2.83;75.53;100152.86;373617;105;1962874;-69
2021/03/01 03:13:57;;;;;;;4.04;1.77;;;;;;;2.87;75.24;100154.27;350689;106;1961927;-70
2021/03/01 03:15:04;;;;;;;3.29;1.74;;;;;;;2.90;75.64;100155.80;375683;107;1962063;-70
2021/03/01 03:16:10;;;;;;;3.60;1.62;;;;;;;2.90;75.24;100158.48;335701;107;2618987;-71
2021/03/01 03:17:18;;;;;;;2.62;1.35;;;;;;;2.90;75.29;100158.48;374765;106;1965079;-71
2021/03/01 03:18:26;;;;;;;2.15;1.31;;;;;;;2.91;75.70;100163.68;376337;105;1962993;-71
2021/03/01 03:19:31;;;;;;;2.71;1.42;;;;;;;2.91;75.39;100162.81;374921;105;1962054;-72
2021/03/01 03:20:39;;;;;;;1.93;1.36;;;;;;;2.96;75.72;100160.55;376824;107;1963002;-71
2021/03/01 03:21:45;;;;;;;3.86;1.58;;;;;;;2.98;75.73;100166.59;352087;108;2359077;-70
2021/03/01 03:22:50;;;;;;;2.02;1.24;;;;;;;2.96;75.17;100166.73;370213;107;1961916;-70
2021/03/01 03:23:55;;;;;;;3.29;1.60;;;;;;;2.97;75.23;100167.59;374541;106;1962924;-71
2021/03/01 03:25:03;;;;;;;2.04;1.37;;;;;;;2.98;75.53;100169.27;375727;105;1964022;-71
2021/03/01 03:26:10;;;;;;;3.14;1.61;;;;;;;2.97;75.09;100168.43;313368;105;2166474;-72
2021/03/01 03:27:15;;;;;;;2.22;1.42;;;;;;;2.98;75.36;100175.44;371894;106;1961958;-72
2021/03/01 03:28:20;;;;;;;2.25;1.38;;;;;;;3.00;75.52;100177.98;373966;106;1961903;-72
2021/03/01 03:29:25;;;;;;;2.54;1.28;;;;;;;2.99;74.90;100178.94;376443;106;1961959;-70
2021/03/01 03:30:33;;;;;;;1.98;1.21;;;;;;;2.95;74.79;100181.06;376546;105;1961894;-72
2021/03/01 03:31:45;;;;;;;3.27;1.29;;;;;;;2.95;74.32;100174.89;317708;106;2124643;-71
2021/03/01 03:32:52;;;;;;;2.46;1.16;;;;;;;2.94;74.92;100179.40;376710;105;1961946;-71
2021/03/01 03:33:59;;;;;;;2.03;1.16;;;;;;;2.91;74.82;100177.02;346052;105;2473976;-72
2021/03/01 03:35:07;;;;;;;3.83;1.49;;;;;;;2.94;75.24;100170.53;375806;106;1961986;-71
2021/03/01 03:36:15;;;;;;;2.61;1.48;;;;;;;2.98;75.24;100180.77;349514;106;2393970;-71
2021/03/01 03:37:30;;;;;;;2.44;1.50;;;;;;;3.01;75.17;100168.97;373684;105;1961930;-71
2021/03/01 03:38:51;;;;;;;2.17;1.38;;;;;;;3.01;74.51;100175.14;376137;105;1961964;-72
2021/03/01 03:39:58;;;;;;;2.69;1.63;;;;;;;3.00;74.82;100172.64;374179;108;1962020;-71
2021/03/01 03:41:06;;;;;;;2.34;1.44;;;;;;;2.97;75.18;100167.59;362562;105;1962045;-71
2021/03/01 03:42:21;;;;;;;3.33;1.31;;;;;;;2.94;74.60;100173.20;375514;106;1963051;-72
2021/03/01 03:43:29;;;;;;;2.28;1.28;;;;;;;2.97;74.62;100172.94;374892;106;1961946;-72
2021/03/01 03:44:37;;;;;;;2.35;1.44;;;;;;;2.97;74.17;100173.77;373324;106;1964080;-71
2021/03/01 03:45:44;;;;;;;2.13;1.36;;;;;;;2.98;74.25;100174.60;323007;105;2089288;-71
2021/03/01 03:46:53;;;;;;;2.67;1.44;;;;;;;2.98;74.67;100178.11;360646;110;1962089;-71
2021/03/01 03:48:02;;;;;;;2.54;1.34;;;;;;;2.99;74.89;100176.27;369585;106;1962031;-70
2021/03/01 03:49:12;;;;;;;3.02;1.38;;;;;;;2.98;74.05;100185.28;375354;106;1961975;-72
2021/03/01 03:50:22;;;;;;;3.21;1.43;;;;;;;2.97;74.11;100178.27;375082;105;1961910;-72
2021/03/01 03:51:30;;;;;;;2.92;1.76;;;;;;;3.01;74.52;100175.14;367269;105;1961917;-72
2021/03/01 03:52:39;;;;;;;2.26;1.27;;;;;;;3.02;74.55;100192.02;374126;105;1963025;-73
2021/03/01 03:53:51;;;;;;;3.15;2.04;;;;;;;3.02;74.53;100178.67;375431;105;1961903;-72
2021/03/01 03:54:58;;;;;;;;;;;;;;;3.01;73.96;100183.15;326429;107;2099652;-72
2021/03/01 03:56:04;;;;;;;1.93;1.17;;;;;;;2.98;74.07;100188.78;374551;106;1960968;-71
2021/03/01 03:57:13;;;;;;;2.50;1.37;;;;;;;3.00;74.71;100184.15;375629;106;1963979;-72
2021/03/01 03:58:24;;;;;;;2.27;1.39;;;;;;;3.02;74.32;100186.69;374385;106;1962083;-72
2021/03/01 03:59:33;;;;;;;3.22;1.29;;;;;;;3.05;74.75;100189.06;375800;106;1961925;-70
2021/03/01 04:00:40;;;;;;;3.98;1.71;;;;;;;3.05;74.53;100186.39;372982;107;1961927;-72
2021/03/01 04:01:53;;;;;;;3.68;1.54;;;;;;;3.05;74.52;100183.72;354914;105;1961737;-72
2021/03/01 04:03:03;;;;;;;2.76;1.51;;;;;;;3.08;74.40;100189.60;373899;105;1961940;-72
2021/03/01 04:04:09;;;;;;;2.25;1.31;;;;;;;3.09;74.37;100193.11;375179;106;1962017;-71
2021/03/01 04:05:17;;;;;;;3.21;1.62;;;;;;;3.05;73.77;100197.91;339407;105;2903946;-71
2021/03/01 04:06:25;;;;;;;3.72;1.84;;;;;;;3.06;74.03;100198.73;376584;105;1962048;-72
2021/03/01 04:07:33;;;;;;;3.16;1.92;;;;;;;3.04;74.29;100196.23;313095;105;2190211;-73
2021/03/01 04:08:41;;;;;;;3.49;2.48;;;;;;;3.03;74.52;100193.70;376600;105;1961929;-71
2021/03/01 04:09:47;;;;;;;2.99;1.88;;;;;;;3.05;74.94;100191.73;367051;105;1961050;-71
2021/03/01 04:10:54;;;;;;;4.58;1.98;;;;;;;3.06;75.00;100199.58;370077;106;1960599;-71
2021/03/01 04:12:03;;;;;;;3.92;2.21;;;;;;;3.06;74.66;100190.73;306335;111;2856926;-71
2021/03/01 04:13:12;;;;;;;4.39;2.23;;;;;;;3.08;75.12;100191.44;355904;113;1961984;-72
2021/03/01 04:14:20;;;;;;;3.32;2.08;;;;;;;3.12;75.25;100195.48;352915;113;1961975;-72
2021/03/01 04:15:29;;;;;;;4.75;2.14;;;;;;;3.12;74.65;100190.14;338173;118;1961999;-72
2021/03/01 04:16:36;;;;;;;3.21;1.84;;;;;;;3.13;74.57;100194.52;304509;113;2086183;-71
2021/03/01 04:17:44;;;;;;;4.14;1.71;;;;;;;3.16;74.65;100193.38;353286;113;1961942;-71
2021/03/01 04:18:54;;;;;;;2.37;1.58;;;;;;;3.17;73.91;100190.55;328404;113;1961934;-71
2021/03/01 04:20:01;;;;;;;4.47;1.91;;;;;;;3.15;73.62;100192.55;321547;113;2580901;-71
2021/03/01 04:21:08;;;;;;;3.59;1.88;;;;;;;3.11;73.96;100196.48;352002;113;1962015;-71
2021/03/01 04:22:17;;;;;;;3.87;1.84;;;;;;;3.10;74.36;100197.48;318695;113;2585002;-72
2021/03/01 04:23:25;;;;;;;3.70;1.79;;;;;;;3.11;74.32;100207.16;352469;113;1962026;-72
2021/03/01 04:24:32;;;;;;;4.76;1.89;;;;;;;3.12;74.52;100207.99;352839;113;1963957;-71
2021/03/01 04:25:39;;;;;;;4.19;2.61;;;;;;;3.11;74.50;100211.66;352713;112;1959725;-73
2021/03/01 04:26:45;;;;;;;4.37;2.23;;;;;;;3.14;74.81;100217.54;351243;113;1961982;-71
2021/03/01 04:27:52;;;;;;;3.82;2.27;;;;;;;3.15;74.68;100216.58;353459;113;1962917;-72
2021/03/01 04:29:00;;;;;;;3.38;1.90;;;;;;;3.17;74.72;100211.07;305634;113;2842957;-72
2021/03/01 04:30:09;;;;;;;3.11;1.86;;;;;;;3.18;73.99;100204.77;354005;113;1961866;-71
2021/03/01 04:31:16;;;;;;;4.14;2.08;;;;;;;3.18;74.18;100210.10;324120;113;1962926;-70
2021/03/01 04:32:22;;;;;;;3.87;1.72;;;;;;;3.17;73.75;100208.41;352589;113;1961908;-71
2021/03/01 04:33:30;;;;;;;4.18;2.15;;;;;;;3.15;73.57;100213.91;305414;113;2852074;-71
2021/03/01 04:34:37;;;;;;;4.52;2.16;;;;;;;3.15;74.00;100207.70;353122;113;1963039;-72
2021/03/01 04:35:46;;;;;;;6.26;2.46;;;;;;;3.15;74.37;100213.03;327909;112;2426999;-72
2021/03/01 04:37:05;;;;;;;6.31;2.51;;;;;;;3.16;74.51;100218.24;353820;112;1962985;-70
2021/03/01 04:38:11;;;;;;;5.37;2.47;;;;;;;3.20;74.51;100216.98;364867;108;1963993;-71
2021/03/01 04:39:17;;;;;;;4.80;2.41;;;;;;;3.23;74.24;100219.36;360724;110;1962001;-72
2021/03/01 04:40:24;;;;;;;6.77;3.04;;;;;;;3.22;74.20;100214.16;352144;113;1963979;-70
2021/03/01 04:41:30;;;;;;;5.92;2.99;;;;;;;3.26;74.52;100213.72;352172;113;1961960;-71
2021/03/01 04:42:37;;;;;;;6.93;2.89;;;;;;;3.30;74.52;100211.59;353216;113;1962047;-72
2021/03/01 04:43:44;;;;;;;7.56;4.83;;;;;;;3.35;74.28;100219.17;304891;113;2238943;-72
2021/03/01 04:44:50;;;;;;;10.39;5.29;;;;;;;3.37;73.98;100220.71;356792;112;1961977;-70
2021/03/01 04:45:56;;;;;;;7.88;4.42;;;;;;;3.39;73.88;100221.41;357145;112;1961993;-72
2021/03/01 04:47:04;;;;;;;7.23;3.82;;;;;;;3.40;73.97;100222.25;328881;110;2515997;-71
2021/03/01 04:48:11;;;;;;;11.83;5.18;;;;;;;3.40;74.12;100224.92;360608;111;1961913;-71
2021/03/01 04:49:18;;;;;;;7.01;3.21;;;;;;;3.42;74.26;100226.46;337060;110;1961903;-72
2021/03/01 04:50:24;;;;;;;5.16;2.47;;;;;;;3.45;73.75;100228.00;357978;110;1964365;-71
2021/03/01 04:51:31;;;;;;;10.09;4.34;;;;;;;3.47;73.55;100234.05;360190;110;1961896;-72
2021/03/01 04:52:37;;;;;;;7.30;3.19;;;;;;;3.46;73.71;100240.35;325375;110;2593910;-71
2021/03/01 04:53:44;;;;;;;4.28;2.32;;;;;;;3.45;74.22;100234.17;360222;110;1961991;-71
2021/03/01 04:54:50;;;;;;;7.12;3.19;;;;;;;3.45;73.85;100236.02;355869;112;1961930;-71
2021/03/01 04:55:57;;;;;;;3.57;1.63;;;;;;;3.47;74.05;100242.89;355772;112;1961950;-71
2021/03/01 04:57:03;;;;;;;3.99;2.26;;;;;;;3.47;72.50;100242.89;354894;111;1961939;-72
2021/03/01 04:58:10;;;;;;;4.36;1.88;;;;;;;3.42;71.90;100247.83;362566;110;1961968;-72
2021/03/01 04:59:19;;;;;;;5.52;2.93;;;;;;;3.40;72.93;100257.80;360602;110;1961770;-72
2021/03/01 05:00:27;;;;;;;5.47;2.62;;;;;;;3.36;73.03;100256.42;356670;112;1962074;-72
2021/03/01 05:01:33;;;;;;;5.14;2.78;;;;;;;3.35;73.47;100254.72;346631;112;1961952;-72
2021/03/01 05:02:40;;;;;;;5.43;2.67;;;;;;;3.38;73.18;100262.44;361038;110;1962031;-72
2021/03/01 05:03:48;;;;;;;5.24;2.72;;;;;;;3.39;73.39;100256.13;343059;110;2245965;-72
2021/03/01 05:04:56;;;;;;;4.38;2.28;;;;;;;3.39;73.62;100268.65;361679;106;1963027;-73
2021/03/01 05:06:12;;;;;;;6.77;3.48;;;;;;;3.40;73.78;100268.48;337226;112;1962996;-72
2021/03/01 05:07:20;;;;;;;6.43;2.86;;;;;;;3.39;72.79;100277.50;358203;110;1962983;-71
2021/03/01 05:08:27;;;;;;;7.93;3.43;;;;;;;3.38;73.13;100277.63;326882;113;2488923;-71
2021/03/01 05:09:35;;;;;;;8.14;3.01;;;;;;;3.38;73.07;100286.47;353798;113;1961983;-72
2021/03/01 05:10:44;;;;;;;5.89;2.91;;;;;;;3.36;73.31;100275.13;354341;113;1961942;-72
2021/03/01 05:11:49;;;;;;;6.10;2.71;;;;;;;3.37;73.50;100281.30;349706;113;1964994;-72
2021/03/01 05:12:55;;;;;;;8.02;3.71;;;;;;;3.39;73.60;100285.51;308400;113;2711909;-72